sensor_id;sensor_type;location;lat;lon;timestamp;pressure;altitude;pressure_sealevel;temperature;humidity
18533;BME280;9396;51.510;11.934;2023-01-29T00:01:09;101829.50;;;0.83;86.78
18533;BME280;9396;51.510;11.934;2023-01-29T00:03:37;101828.41;;;0.88;87.51
18533;BME280;9396;51.510;11.934;2023-01-29T00:06:04;101828.00;;;0.99;87.00
18533;BME280;9396;51.510;11.934;2023-01-29T00:08:32;101822.44;;;1.08;86.18
18533;BME280;9396;51.510;11.934;2023-01-29T00:11:00;101722.88;;;0.42;85.63
18533;BME280;9396;51.510;11.934;2023-01-29T00:13:27;101825.81;;;0.65;87.29
18533;BME280;9396;51.510;11.934;2023-01-29T00:15:54;101832.22;;;0.57;87.67
18533;BME280;9396;51.510;11.934;2023-01-29T00:18:20;101837.13;;;0.41;88.58
18533;BME280;9396;51.510;11.934;2023-01-29T00:20:48;101826.38;;;0.26;88.75
18533;BME280;9396;51.510;11.934;2023-01-29T00:23:15;101823.31;;;0.38;88.96
18533;BME280;9396;51.510;11.934;2023-01-29T00:25:42;101820.25;;;0.27;88.64
18533;BME280;9396;51.510;11.934;2023-01-29T00:28:09;101819.69;;;0.42;88.47
18533;BME280;9396;51.510;11.934;2023-01-29T00:30:36;101822.19;;;0.45;89.32
18533;BME280;9396;51.510;11.934;2023-01-29T00:33:03;101815.81;;;0.52;88.64
18533;BME280;9396;51.510;11.934;2023-01-29T00:35:30;101817.88;;;0.44;88.18
18533;BME280;9396;51.510;11.934;2023-01-29T00:37:58;101814.81;;;0.56;88.07
18533;BME280;9396;51.510;11.934;2023-01-29T00:40:25;101800.56;;;0.40;88.44
18533;BME280;9396;51.510;11.934;2023-01-29T00:42:52;101804.22;;;0.59;88.84
18533;BME280;9396;51.510;11.934;2023-01-29T00:45:36;101801.97;;;0.50;88.44
18533;BME280;9396;51.510;11.934;2023-01-29T00:48:03;101802.63;;;0.55;88.41
18533;BME280;9396;51.510;11.934;2023-01-29T00:50:31;101809.34;;;0.14;89.00
18533;BME280;9396;51.510;11.934;2023-01-29T00:52:59;101804.25;;;-0.15;89.66
18533;BME280;9396;51.510;11.934;2023-01-29T00:55:25;101800.50;;;-0.33;90.80
18533;BME280;9396;51.510;11.934;2023-01-29T00:57:52;101797.97;;;-0.62;90.70
18533;BME280;9396;51.510;11.934;2023-01-29T01:00:19;101796.69;;;-0.75;92.06
18533;BME280;9396;51.510;11.934;2023-01-29T01:02:46;101798.59;;;-0.54;92.57
18533;BME280;9396;51.510;11.934;2023-01-29T01:05:30;101796.53;;;-0.44;91.91
18533;BME280;9396;51.510;11.934;2023-01-29T01:07:58;101794.06;;;-0.49;92.71
18533;BME280;9396;51.510;11.934;2023-01-29T01:10:27;101789.31;;;-0.64;91.95
18533;BME280;9396;51.510;11.934;2023-01-29T01:12:54;101781.25;;;-0.56;92.62
18533;BME280;9396;51.510;11.934;2023-01-29T01:15:23;101783.72;;;-0.52;93.21
18533;BME280;9396;51.510;11.934;2023-01-29T01:17:51;101774.88;;;-0.22;91.58
18533;BME280;9396;51.510;11.934;2023-01-29T01:20:18;101758.56;;;-0.05;90.53
18533;BME280;9396;51.510;11.934;2023-01-29T01:22:45;101754.63;;;0.08;90.00
18533;BME280;9396;51.510;11.934;2023-01-29T01:25:13;101758.47;;;0.23;90.67
18533;BME280;9396;51.510;11.934;2023-01-29T01:27:40;101752.09;;;0.30;89.81
18533;BME280;9396;51.510;11.934;2023-01-29T01:30:09;101758.59;;;0.43;89.59
18533;BME280;9396;51.510;11.934;2023-01-29T01:32:36;101761.91;;;0.48;89.43
18533;BME280;9396;51.510;11.934;2023-01-29T01:35:04;101758.03;;;0.35;88.16
18533;BME280;9396;51.510;11.934;2023-01-29T01:37:30;101756.88;;;0.42;88.05
18533;BME280;9396;51.510;11.934;2023-01-29T01:39:57;101758.56;;;0.20;88.05
18533;BME280;9396;51.510;11.934;2023-01-29T01:42:28;101776.38;;;0.10;88.88
18533;BME280;9396;51.510;11.934;2023-01-29T01:44:59;101774.63;;;-0.16;89.50
18533;BME280;9396;51.510;11.934;2023-01-29T01:47:34;101780.22;;;0.00;89.88
18533;BME280;9396;51.510;11.934;2023-01-29T01:50:06;101770.88;;;0.18;90.11
18533;BME280;9396;51.510;11.934;2023-01-29T01:52:36;101768.75;;;0.27;89.24
18533;BME280;9396;51.510;11.934;2023-01-29T01:55:07;101774.25;;;0.20;88.98
18533;BME280;9396;51.510;11.934;2023-01-29T01:57:35;101772.44;;;0.22;89.16
18533;BME280;9396;51.510;11.934;2023-01-29T02:00:05;101574.81;;;-0.79;88.29
18533;BME280;9396;51.510;11.934;2023-01-29T02:02:37;101768.47;;;0.35;88.46
18533;BME280;9396;51.510;11.934;2023-01-29T02:05:22;101768.56;;;0.09;88.02
18533;BME280;9396;51.510;11.934;2023-01-29T02:08:06;101767.81;;;0.05;88.63
18533;BME280;9396;51.510;11.934;2023-01-29T02:10:50;101770.06;;;-0.09;88.97
18533;BME280;9396;51.510;11.934;2023-01-29T02:13:20;101755.44;;;0.10;89.60
18533;BME280;9396;51.510;11.934;2023-01-29T02:15:47;101748.00;;;0.23;88.51
18533;BME280;9396;51.510;11.934;2023-01-29T02:18:15;101733.78;;;0.07;88.78
18533;BME280;9396;51.510;11.934;2023-01-29T02:20:46;101761.88;;;-0.25;88.74
18533;BME280;9396;51.510;11.934;2023-01-29T02:26:45;101784.19;;;-0.39;91.14
18533;BME280;9396;51.510;11.934;2023-01-29T02:29:20;101786.88;;;-0.42;91.14
18533;BME280;9396;51.510;11.934;2023-01-29T02:32:10;101775.00;;;-0.26;91.09
18533;BME280;9396;51.510;11.934;2023-01-29T02:34:46;101771.19;;;-0.16;90.22
18533;BME280;9396;51.510;11.934;2023-01-29T02:37:36;101773.63;;;-0.36;90.70
18533;BME280;9396;51.510;11.934;2023-01-29T02:40:10;101771.03;;;-0.12;90.97
18533;BME280;9396;51.510;11.934;2023-01-29T02:42:56;101776.75;;;-0.01;90.96
18533;BME280;9396;51.510;11.934;2023-01-29T02:45:31;101770.81;;;-0.06;90.40
18533;BME280;9396;51.510;11.934;2023-01-29T02:48:01;101767.53;;;0.13;89.31
18533;BME280;9396;51.510;11.934;2023-01-29T02:50:33;101758.22;;;0.29;89.91
18533;BME280;9396;51.510;11.934;2023-01-29T02:53:05;101757.34;;;0.30;88.91
18533;BME280;9396;51.510;11.934;2023-01-29T02:55:37;101762.31;;;-0.12;89.36
18533;BME280;9396;51.510;11.934;2023-01-29T02:58:10;101764.97;;;0.11;89.39
18533;BME280;9396;51.510;11.934;2023-01-29T03:00:43;101753.25;;;0.23;89.23
18533;BME280;9396;51.510;11.934;2023-01-29T03:03:13;101747.56;;;0.35;89.35
18533;BME280;9396;51.510;11.934;2023-01-29T03:05:48;101751.66;;;0.42;88.81
18533;BME280;9396;51.510;11.934;2023-01-29T03:08:20;101737.53;;;0.46;88.72
18533;BME280;9396;51.510;11.934;2023-01-29T03:10:51;101742.66;;;0.49;87.82
18533;BME280;9396;51.510;11.934;2023-01-29T03:13:25;101731.28;;;0.50;88.11
18533;BME280;9396;51.510;11.934;2023-01-29T03:15:59;101736.34;;;0.31;87.29
18533;BME280;9396;51.510;11.934;2023-01-29T03:18:31;101743.28;;;0.32;87.77
18533;BME280;9396;51.510;11.934;2023-01-29T03:21:04;101745.22;;;0.27;88.11
18533;BME280;9396;51.510;11.934;2023-01-29T03:23:55;101747.47;;;0.13;89.04
18533;BME280;9396;51.510;11.934;2023-01-29T03:26:41;101740.97;;;0.25;89.05
18533;BME280;9396;51.510;11.934;2023-01-29T03:29:28;101731.91;;;0.10;89.37
18533;BME280;9396;51.510;11.934;2023-01-29T03:32:15;101725.94;;;0.07;89.54
18533;BME280;9396;51.510;11.934;2023-01-29T03:34:47;101730.22;;;0.08;88.97
18533;BME280;9396;51.510;11.934;2023-01-29T03:37:20;101731.03;;;0.10;89.03
18533;BME280;9396;51.510;11.934;2023-01-29T03:39:49;101729.84;;;0.18;89.03
18533;BME280;9396;51.510;11.934;2023-01-29T03:42:19;101740.50;;;0.14;89.64
18533;BME280;9396;51.510;11.934;2023-01-29T03:44:55;101743.13;;;-0.11;89.17
18533;BME280;9396;51.510;11.934;2023-01-29T03:47:33;101751.44;;;0.00;89.99
18533;BME280;9396;51.510;11.934;2023-01-29T03:50:04;101746.72;;;0.10;89.45
18533;BME280;9396;51.510;11.934;2023-01-29T03:52:41;101740.81;;;0.05;88.79
18533;BME280;9396;51.510;11.934;2023-01-29T03:55:14;101746.63;;;-0.12;89.72
18533;BME280;9396;51.510;11.934;2023-01-29T03:57:47;101755.25;;;-0.35;90.77
18533;BME280;9396;51.510;11.934;2023-01-29T04:00:19;101752.66;;;-0.35;90.36
18533;BME280;9396;51.510;11.934;2023-01-29T04:02:55;101742.47;;;-0.18;91.14
18533;BME280;9396;51.510;11.934;2023-01-29T04:05:27;101736.09;;;-0.11;90.26
18533;BME280;9396;51.510;11.934;2023-01-29T04:08:03;101735.00;;;-0.04;90.76
18533;BME280;9396;51.510;11.934;2023-01-29T04:10:32;101734.50;;;0.10;90.61
18533;BME280;9396;51.510;11.934;2023-01-29T04:13:04;101727.13;;;0.21;90.46
18533;BME280;9396;51.510;11.934;2023-01-29T04:15:36;101737.41;;;0.26;89.77
18533;BME280;9396;51.510;11.934;2023-01-29T04:18:08;101731.13;;;0.31;89.75
18533;BME280;9396;51.510;11.934;2023-01-29T04:20:35;101717.75;;;0.39;89.34
18533;BME280;9396;51.510;11.934;2023-01-29T04:23:05;101711.84;;;0.34;89.66
18533;BME280;9396;51.510;11.934;2023-01-29T04:25:49;101715.94;;;0.41;88.71
18533;BME280;9396;51.510;11.934;2023-01-29T04:28:22;101712.63;;;0.36;88.88
18533;BME280;9396;51.510;11.934;2023-01-29T04:30:57;101716.38;;;0.29;88.89
18533;BME280;9396;51.510;11.934;2023-01-29T04:33:33;101706.47;;;0.14;89.40
18533;BME280;9396;51.510;11.934;2023-01-29T04:36:19;101694.94;;;0.19;90.30
18533;BME280;9396;51.510;11.934;2023-01-29T04:38:58;101696.56;;;0.23;89.29
18533;BME280;9396;51.510;11.934;2023-01-29T04:41:31;101671.00;;;0.30;89.42
18533;BME280;9396;51.510;11.934;2023-01-29T04:44:04;101679.06;;;0.47;89.58
18533;BME280;9396;51.510;11.934;2023-01-29T04:46:41;101671.00;;;0.07;90.33
18533;BME280;9396;51.510;11.934;2023-01-29T04:49:25;101676.56;;;0.21;89.31
18533;BME280;9396;51.510;11.934;2023-01-29T04:51:59;101673.63;;;0.07;90.84
18533;BME280;9396;51.510;11.934;2023-01-29T04:54:35;101664.84;;;0.08;91.42
18533;BME280;9396;51.510;11.934;2023-01-29T04:57:13;101659.34;;;-0.08;91.60
18533;BME280;9396;51.510;11.934;2023-01-29T04:59:44;101646.47;;;0.09;90.76
18533;BME280;9396;51.510;11.934;2023-01-29T05:02:13;101637.94;;;0.27;91.08
18533;BME280;9396;51.510;11.934;2023-01-29T05:04:42;101642.16;;;-0.15;91.20
18533;BME280;9396;51.510;11.934;2023-01-29T05:07:12;101648.88;;;-0.08;91.70
18533;BME280;9396;51.510;11.934;2023-01-29T05:09:43;101639.56;;;-0.15;91.52
18533;BME280;9396;51.510;11.934;2023-01-29T05:12:11;101644.56;;;-0.32;92.11
18533;BME280;9396;51.510;11.934;2023-01-29T05:14:41;101650.25;;;0.02;92.16
18533;BME280;9396;51.510;11.934;2023-01-29T05:17:14;101637.16;;;0.25;91.71
18533;BME280;9396;51.510;11.934;2023-01-29T05:19:43;101631.53;;;0.13;92.09
18533;BME280;9396;51.510;11.934;2023-01-29T05:22:12;101632.38;;;0.36;90.75
18533;BME280;9396;51.510;11.934;2023-01-29T05:24:41;101435.16;;;-0.92;90.24
18533;BME280;9396;51.510;11.934;2023-01-29T05:27:12;101637.84;;;0.30;90.71
18533;BME280;9396;51.510;11.934;2023-01-29T05:30:00;101630.09;;;0.27;90.68
18533;BME280;9396;51.510;11.934;2023-01-29T05:32:26;101624.81;;;0.50;89.86
18533;BME280;9396;51.510;11.934;2023-01-29T05:34:54;101621.78;;;0.18;91.16
18533;BME280;9396;51.510;11.934;2023-01-29T05:37:21;101622.91;;;-0.13;91.56
18533;BME280;9396;51.510;11.934;2023-01-29T05:39:48;101623.25;;;0.02;92.40
18533;BME280;9396;51.510;11.934;2023-01-29T05:42:14;101619.53;;;0.30;91.85
18533;BME280;9396;51.510;11.934;2023-01-29T05:44:41;101625.03;;;0.46;90.58
18533;BME280;9396;51.510;11.934;2023-01-29T05:47:08;101622.00;;;0.12;90.77
18533;BME280;9396;51.510;11.934;2023-01-29T05:49:34;101626.75;;;0.00;91.57
18533;BME280;9396;51.510;11.934;2023-01-29T05:52:02;101621.22;;;0.31;92.14
18533;BME280;9396;51.510;11.934;2023-01-29T05:54:29;101617.22;;;0.44;91.07
18533;BME280;9396;51.510;11.934;2023-01-29T05:56:55;101630.31;;;0.44;90.38
18533;BME280;9396;51.510;11.934;2023-01-29T05:59:22;101622.75;;;0.37;90.86
18533;BME280;9396;51.510;11.934;2023-01-29T06:01:49;101630.75;;;0.34;91.46
18533;BME280;9396;51.510;11.934;2023-01-29T06:04:15;101634.94;;;-0.09;92.64
18533;BME280;9396;51.510;11.934;2023-01-29T06:06:42;101637.56;;;-0.09;93.39
18533;BME280;9396;51.510;11.934;2023-01-29T06:09:10;101638.47;;;0.14;93.33
18533;BME280;9396;51.510;11.934;2023-01-29T06:11:37;101649.63;;;0.19;91.68
18533;BME280;9396;51.510;11.934;2023-01-29T06:14:03;101652.19;;;-0.03;93.39
18533;BME280;9396;51.510;11.934;2023-01-29T06:16:30;101660.53;;;0.07;93.11
18533;BME280;9396;51.510;11.934;2023-01-29T06:18:57;101667.59;;;0.05;94.33
18533;BME280;9396;51.510;11.934;2023-01-29T06:21:23;101664.00;;;0.30;93.13
18533;BME280;9396;51.510;11.934;2023-01-29T06:23:51;101673.44;;;0.11;92.02
18533;BME280;9396;51.510;11.934;2023-01-29T06:26:19;101674.41;;;-0.15;93.66
18533;BME280;9396;51.510;11.934;2023-01-29T06:28:47;101677.50;;;-0.28;94.18
18533;BME280;9396;51.510;11.934;2023-01-29T06:31:14;101684.94;;;-0.18;94.82
18533;BME280;9396;51.510;11.934;2023-01-29T06:33:41;101680.75;;;-0.46;95.55
18533;BME280;9396;51.510;11.934;2023-01-29T06:36:08;101680.31;;;-0.10;95.10
18533;BME280;9396;51.510;11.934;2023-01-29T06:38:35;101678.16;;;0.02;93.60
18533;BME280;9396;51.510;11.934;2023-01-29T06:41:07;101645.47;;;-0.10;93.29
18533;BME280;9396;51.510;11.934;2023-01-29T06:43:35;101681.59;;;0.48;93.03
18533;BME280;9396;51.510;11.934;2023-01-29T06:46:02;101703.00;;;0.36;91.95
18533;BME280;9396;51.510;11.934;2023-01-29T06:48:29;101707.38;;;0.36;92.97
18533;BME280;9396;51.510;11.934;2023-01-29T06:51:00;101701.19;;;0.38;92.24
18533;BME280;9396;51.510;11.934;2023-01-29T06:53:27;101694.28;;;0.13;91.86
18533;BME280;9396;51.510;11.934;2023-01-29T06:55:54;101697.72;;;0.15;93.35
18533;BME280;9396;51.510;11.934;2023-01-29T06:58:20;101710.53;;;-0.26;93.65
18533;BME280;9396;51.510;11.934;2023-01-29T07:00:48;101718.19;;;-0.21;95.09
18533;BME280;9396;51.510;11.934;2023-01-29T07:03:15;101714.50;;;-0.16;94.79
18533;BME280;9396;51.510;11.934;2023-01-29T07:05:42;101729.19;;;-0.12;94.52
18533;BME280;9396;51.510;11.934;2023-01-29T07:08:08;101717.47;;;0.23;95.16
18533;BME280;9396;51.510;11.934;2023-01-29T07:10:35;101727.28;;;0.40;94.00
18533;BME280;9396;51.510;11.934;2023-01-29T07:13:02;101726.63;;;0.35;93.01
18533;BME280;9396;51.510;11.934;2023-01-29T07:15:28;101733.78;;;0.30;93.42
18533;BME280;9396;51.510;11.934;2023-01-29T07:17:57;101717.00;;;0.12;94.80
18533;BME280;9396;51.510;11.934;2023-01-29T07:20:24;101745.13;;;0.06;95.16
18533;BME280;9396;51.510;11.934;2023-01-29T07:22:51;101732.03;;;0.06;96.38
18533;BME280;9396;51.510;11.934;2023-01-29T07:25:18;101732.03;;;0.06;96.58
18533;BME280;9396;51.510;11.934;2023-01-29T07:27:44;101730.44;;;0.26;96.67
18533;BME280;9396;51.510;11.934;2023-01-29T07:30:12;101717.16;;;0.54;96.26
18533;BME280;9396;51.510;11.934;2023-01-29T07:32:39;101713.41;;;0.61;94.92
18533;BME280;9396;51.510;11.934;2023-01-29T07:35:08;101705.91;;;0.73;93.95
18533;BME280;9396;51.510;11.934;2023-01-29T07:37:34;101705.09;;;0.73;93.82
18533;BME280;9396;51.510;11.934;2023-01-29T07:40:01;101698.44;;;0.86;94.42
18533;BME280;9396;51.510;11.934;2023-01-29T07:42:29;101692.91;;;0.93;94.97
18533;BME280;9396;51.510;11.934;2023-01-29T07:44:56;101702.09;;;1.03;94.51
18533;BME280;9396;51.510;11.934;2023-01-29T07:47:22;101693.78;;;0.94;94.00
18533;BME280;9396;51.510;11.934;2023-01-29T07:49:49;101684.47;;;1.07;94.85
18533;BME280;9396;51.510;11.934;2023-01-29T07:52:17;101668.31;;;1.18;93.87
18533;BME280;9396;51.510;11.934;2023-01-29T07:54:43;101687.31;;;1.02;94.59
18533;BME280;9396;51.510;11.934;2023-01-29T07:57:10;101673.09;;;1.08;94.66
18533;BME280;9396;51.510;11.934;2023-01-29T07:59:37;101678.69;;;1.21;94.84
18533;BME280;9396;51.510;11.934;2023-01-29T08:02:03;101683.66;;;0.85;95.38
18533;BME280;9396;51.510;11.934;2023-01-29T08:04:30;101669.47;;;0.69;96.17
18533;BME280;9396;51.510;11.934;2023-01-29T08:06:56;101664.94;;;0.51;96.66
18533;BME280;9396;51.510;11.934;2023-01-29T08:09:24;101667.13;;;0.40;98.06
18533;BME280;9396;51.510;11.934;2023-01-29T08:11:51;101680.47;;;0.32;98.67
18533;BME280;9396;51.510;11.934;2023-01-29T08:14:18;101680.50;;;0.54;99.20
18533;BME280;9396;51.510;11.934;2023-01-29T08:16:44;101681.34;;;0.33;98.77
18533;BME280;9396;51.510;11.934;2023-01-29T08:19:11;101690.53;;;0.20;99.28
18533;BME280;9396;51.510;11.934;2023-01-29T08:21:37;101689.44;;;0.27;100.00
18533;BME280;9396;51.510;11.934;2023-01-29T08:24:04;101699.97;;;0.47;100.00
18533;BME280;9396;51.510;11.934;2023-01-29T08:26:32;101694.88;;;0.21;99.60
18533;BME280;9396;51.510;11.934;2023-01-29T08:28:59;101701.00;;;-0.04;100.00
18533;BME280;9396;51.510;11.934;2023-01-29T08:31:26;101697.72;;;0.15;100.00
18533;BME280;9396;51.510;11.934;2023-01-29T08:33:52;101700.06;;;0.22;100.00
18533;BME280;9396;51.510;11.934;2023-01-29T08:36:20;101700.09;;;0.44;100.00
18533;BME280;9396;51.510;11.934;2023-01-29T08:38:46;101715.59;;;0.04;100.00
18533;BME280;9396;51.510;11.934;2023-01-29T08:41:13;101705.22;;;0.00;100.00
18533;BME280;9396;51.510;11.934;2023-01-29T08:43:41;101692.47;;;-0.09;100.00
18533;BME280;9396;51.510;11.934;2023-01-29T08:46:07;101681.59;;;0.04;100.00
18533;BME280;9396;51.510;11.934;2023-01-29T08:48:34;101670.94;;;0.08;100.00
18533;BME280;9396;51.510;11.934;2023-01-29T08:51:01;101684.63;;;0.15;100.00
18533;BME280;9396;51.510;11.934;2023-01-29T08:53:28;101678.00;;;0.29;100.00
18533;BME280;9396;51.510;11.934;2023-01-29T08:55:55;101685.44;;;0.17;100.00
18533;BME280;9396;51.510;11.934;2023-01-29T08:58:22;101684.09;;;0.07;99.74
18533;BME280;9396;51.510;11.934;2023-01-29T09:00:50;101669.81;;;0.15;100.00
18533;BME280;9396;51.510;11.934;2023-01-29T09:03:16;101671.13;;;0.27;100.00
18533;BME280;9396;51.510;11.934;2023-01-29T09:05:43;101659.25;;;0.40;99.91
18533;BME280;9396;51.510;11.934;2023-01-29T09:08:11;101663.25;;;0.50;98.71
18533;BME280;9396;51.510;11.934;2023-01-29T09:10:38;101653.72;;;0.26;98.27
18533;BME280;9396;51.510;11.934;2023-01-29T09:13:04;101652.34;;;0.16;99.82
18533;BME280;9396;51.510;11.934;2023-01-29T09:15:31;101636.50;;;0.42;99.34
18533;BME280;9396;51.510;11.934;2023-01-29T09:18:02;101630.63;;;0.80;99.58
18533;BME280;9396;51.510;11.934;2023-01-29T09:20:29;101628.66;;;0.85;97.69
18533;BME280;9396;51.510;11.934;2023-01-29T09:22:56;101639.28;;;1.02;97.09
18533;BME280;9396;51.510;11.934;2023-01-29T09:25:23;101633.16;;;1.03;96.06
18533;BME280;9396;51.510;11.934;2023-01-29T09:27:50;101625.75;;;1.13;96.10
18533;BME280;9396;51.510;11.934;2023-01-29T09:30:17;101625.34;;;1.01;95.77
18533;BME280;9396;51.510;11.934;2023-01-29T09:32:44;101632.47;;;0.98;96.96
18533;BME280;9396;51.510;11.934;2023-01-29T09:35:12;101643.75;;;0.78;97.89
18533;BME280;9396;51.510;11.934;2023-01-29T09:37:38;101643.00;;;0.76;97.95
18533;BME280;9396;51.510;11.934;2023-01-29T09:40:06;101642.41;;;0.90;96.95
18533;BME280;9396;51.510;11.934;2023-01-29T09:42:36;101637.47;;;0.61;97.10
18533;BME280;9396;51.510;11.934;2023-01-29T09:45:10;101635.13;;;0.55;98.22
18533;BME280;9396;51.510;11.934;2023-01-29T09:47:39;101612.22;;;0.38;98.79
18533;BME280;9396;51.510;11.934;2023-01-29T09:50:14;101632.97;;;0.64;99.87
18533;BME280;9396;51.510;11.934;2023-01-29T09:52:46;101634.78;;;0.64;98.49
18533;BME280;9396;51.510;11.934;2023-01-29T09:55:21;101624.47;;;0.81;98.10
18533;BME280;9396;51.510;11.934;2023-01-29T09:57:52;101628.28;;;0.94;97.83
18533;BME280;9396;51.510;11.934;2023-01-29T10:00:30;101626.50;;;0.94;98.22
18533;BME280;9396;51.510;11.934;2023-01-29T10:03:15;101624.22;;;1.07;97.61
18533;BME280;9396;51.510;11.934;2023-01-29T10:05:56;101619.53;;;1.15;96.76
18533;BME280;9396;51.510;11.934;2023-01-29T10:11:23;101606.50;;;1.34;96.45
18533;BME280;9396;51.510;11.934;2023-01-29T10:14:03;101606.06;;;1.24;95.57
18533;BME280;9396;51.510;11.934;2023-01-29T10:16:45;101610.88;;;1.13;96.35
18533;BME280;9396;51.510;11.934;2023-01-29T10:19:36;101594.03;;;0.98;96.86
18533;BME280;9396;51.510;11.934;2023-01-29T10:22:38;101598.72;;;1.12;96.05
18533;BME280;9396;51.510;11.934;2023-01-29T10:25:11;101590.38;;;1.02;96.32
18533;BME280;9396;51.510;11.934;2023-01-29T10:27:42;101594.38;;;1.11;96.72
18533;BME280;9396;51.510;11.934;2023-01-29T10:30:21;101554.63;;;1.01;96.56
18533;BME280;9396;51.510;11.934;2023-01-29T10:32:53;101573.09;;;1.39;95.97
18533;BME280;9396;51.510;11.934;2023-01-29T10:35:23;101570.72;;;1.53;95.40
18533;BME280;9396;51.510;11.934;2023-01-29T10:37:53;101513.72;;;1.19;94.23
18533;BME280;9396;51.510;11.934;2023-01-29T10:40:21;101577.09;;;1.47;95.74
18533;BME280;9396;51.510;11.934;2023-01-29T10:42:53;101582.19;;;1.50;94.95
18533;BME280;9396;51.510;11.934;2023-01-29T10:45:27;101573.75;;;1.44;95.42
18533;BME280;9396;51.510;11.934;2023-01-29T10:48:20;101570.41;;;1.40;95.32
18533;BME280;9396;51.510;11.934;2023-01-29T10:50:54;101582.47;;;1.44;95.48
18533;BME280;9396;51.510;11.934;2023-01-29T10:53:40;101578.03;;;1.65;94.67
18533;BME280;9396;51.510;11.934;2023-01-29T10:56:23;101567.94;;;1.56;94.39
18533;BME280;9396;51.510;11.934;2023-01-29T10:58:55;101558.56;;;1.70;95.28
18533;BME280;9396;51.510;11.934;2023-01-29T11:01:24;101539.59;;;1.64;94.83
18533;BME280;9396;51.510;11.934;2023-01-29T11:03:55;101538.25;;;1.55;95.28
18533;BME280;9396;51.510;11.934;2023-01-29T11:06:28;101465.84;;;1.16;95.44
18533;BME280;9396;51.510;11.934;2023-01-29T11:09:01;101531.72;;;1.45;94.87
18533;BME280;9396;51.510;11.934;2023-01-29T11:11:32;101530.38;;;1.37;96.39
18533;BME280;9396;51.510;11.934;2023-01-29T11:14:02;101531.47;;;1.51;97.21
18533;BME280;9396;51.510;11.934;2023-01-29T11:16:39;101522.41;;;1.58;95.93
18533;BME280;9396;51.510;11.934;2023-01-29T11:19:07;101524.81;;;1.44;96.07
18533;BME280;9396;51.510;11.934;2023-01-29T11:21:49;101527.66;;;1.58;96.04
18533;BME280;9396;51.510;11.934;2023-01-29T11:24:18;101518.41;;;1.50;96.19
18533;BME280;9396;51.510;11.934;2023-01-29T11:26:47;101515.44;;;1.57;96.06
18533;BME280;9396;51.510;11.934;2023-01-29T11:29:30;101516.38;;;1.56;97.72
18533;BME280;9396;51.510;11.934;2023-01-29T11:32:00;101511.25;;;1.53;96.70
18533;BME280;9396;51.510;11.934;2023-01-29T11:34:29;101500.88;;;1.70;95.71
18533;BME280;9396;51.510;11.934;2023-01-29T11:36:57;101492.19;;;1.50;95.20
18533;BME280;9396;51.510;11.934;2023-01-29T11:39:27;101499.03;;;1.72;96.42
18533;BME280;9396;51.510;11.934;2023-01-29T11:41:56;101492.06;;;1.90;95.40
18533;BME280;9396;51.510;11.934;2023-01-29T11:44:29;101482.81;;;2.00;94.77
18533;BME280;9396;51.510;11.934;2023-01-29T11:47:08;101480.53;;;1.94;94.47
18533;BME280;9396;51.510;11.934;2023-01-29T11:49:36;101485.41;;;1.83;94.78
18533;BME280;9396;51.510;11.934;2023-01-29T11:52:07;101480.72;;;1.89;97.34
18533;BME280;9396;51.510;11.934;2023-01-29T11:54:38;101465.25;;;1.83;96.54
18533;BME280;9396;51.510;11.934;2023-01-29T11:57:21;101478.16;;;1.88;95.19
18533;BME280;9396;51.510;11.934;2023-01-29T11:59:51;101469.09;;;1.95;94.12
18533;BME280;9396;51.510;11.934;2023-01-29T12:02:28;101466.38;;;1.96;94.06
18533;BME280;9396;51.510;11.934;2023-01-29T12:05:00;101452.06;;;2.03;95.79
18533;BME280;9396;51.510;11.934;2023-01-29T12:07:28;101444.00;;;1.89;95.17
18533;BME280;9396;51.510;11.934;2023-01-29T12:09:57;101447.66;;;2.04;94.75
18533;BME280;9396;51.510;11.934;2023-01-29T12:12:33;101437.09;;;2.05;94.00
18533;BME280;9396;51.510;11.934;2023-01-29T12:15:20;101432.94;;;2.18;93.58
18533;BME280;9396;51.510;11.934;2023-01-29T12:18:03;101433.16;;;2.14;94.18
18533;BME280;9396;51.510;11.934;2023-01-29T12:20:34;101426.59;;;2.22;94.17
18533;BME280;9396;51.510;11.934;2023-01-29T12:23:10;101418.13;;;2.17;92.53
18533;BME280;9396;51.510;11.934;2023-01-29T12:25:46;101418.34;;;2.30;92.72
18533;BME280;9396;51.510;11.934;2023-01-29T12:28:23;101415.34;;;2.38;92.61
18533;BME280;9396;51.510;11.934;2023-01-29T12:31:03;101412.09;;;2.50;91.76
18533;BME280;9396;51.510;11.934;2023-01-29T12:33:38;101408.25;;;2.40;92.19
18533;BME280;9396;51.510;11.934;2023-01-29T12:36:11;101412.03;;;2.17;93.03
18533;BME280;9396;51.510;11.934;2023-01-29T12:38:39;101415.22;;;1.88;94.44
18533;BME280;9396;51.510;11.934;2023-01-29T12:41:30;101410.53;;;1.94;94.15
18533;BME280;9396;51.510;11.934;2023-01-29T12:44:02;101406.91;;;1.97;94.75
18533;BME280;9396;51.510;11.934;2023-01-29T12:46:36;101398.97;;;1.98;93.46
18533;BME280;9396;51.510;11.934;2023-01-29T12:49:09;101407.56;;;1.83;95.53
18533;BME280;9396;51.510;11.934;2023-01-29T12:51:41;101393.53;;;1.84;94.81
18533;BME280;9396;51.510;11.934;2023-01-29T12:54:15;101405.19;;;1.60;95.02
18533;BME280;9396;51.510;11.934;2023-01-29T12:56:48;101396.63;;;1.57;96.27
18533;BME280;9396;51.510;11.934;2023-01-29T12:59:20;101392.34;;;1.73;96.87
18533;BME280;9396;51.510;11.934;2023-01-29T13:01:51;101372.84;;;1.78;95.98
18533;BME280;9396;51.510;11.934;2023-01-29T13:04:29;101377.09;;;1.81;95.60
18533;BME280;9396;51.510;11.934;2023-01-29T13:07:05;101364.72;;;1.66;95.26
18533;BME280;9396;51.510;11.934;2023-01-29T13:09:37;101360.78;;;1.57;96.86
18533;BME280;9396;51.510;11.934;2023-01-29T13:12:11;101355.38;;;1.60;96.65
18533;BME280;9396;51.510;11.934;2023-01-29T13:14:43;101337.06;;;1.77;96.97
18533;BME280;9396;51.510;11.934;2023-01-29T13:17:16;101339.69;;;1.94;96.51
18533;BME280;9396;51.510;11.934;2023-01-29T13:19:48;101340.31;;;1.99;95.07
18533;BME280;9396;51.510;11.934;2023-01-29T13:22:20;101340.19;;;2.02;93.69
18533;BME280;9396;51.510;11.934;2023-01-29T13:24:48;101336.47;;;2.06;94.01